sensor_id;sensor_type;location;lat;lon;timestamp;P1;durP1;ratioP1;P2;durP2;ratioP2
2646;SDS011;1333;50.958;6.770;2023-11-19T00:01:32;1.10;;;0.93;;
2646;SDS011;1333;50.958;6.770;2023-11-19T00:03:58;1.57;;;1.00;;
2646;SDS011;1333;50.958;6.770;2023-11-19T00:06:23;1.00;;;0.90;;
2646;SDS011;1333;50.958;6.770;2023-11-19T00:08:50;3.47;;;1.10;;
2646;SDS011;1333;50.958;6.770;2023-11-19T00:11:16;0.80;;;0.70;;
2646;SDS011;1333;50.958;6.770;2023-11-19T00:13:41;4.20;;;1.17;;
2646;SDS011;1333;50.958;6.770;2023-11-19T00:16:07;2.30;;;1.10;;
2646;SDS011;1333;50.958;6.770;2023-11-19T00:18:34;3.10;;;1.10;;
2646;SDS011;1333;50.958;6.770;2023-11-19T00:21:01;0.80;;;0.60;;
2646;SDS011;1333;50.958;6.770;2023-11-19T00:23:27;1.27;;;1.00;;
2646;SDS011;1333;50.958;6.770;2023-11-19T00:25:52;0.97;;;0.70;;
2646;SDS011;1333;50.958;6.770;2023-11-19T00:28:18;4.67;;;0.90;;
2646;SDS011;1333;50.958;6.770;2023-11-19T00:30:44;1.33;;;0.83;;
2646;SDS011;1333;50.958;6.770;2023-11-19T00:33:09;1.20;;;0.70;;
2646;SDS011;1333;50.958;6.770;2023-11-19T00:35:35;0.90;;;0.60;;
2646;SDS011;1333;50.958;6.770;2023-11-19T00:38:00;3.80;;;1.37;;
2646;SDS011;1333;50.958;6.770;2023-11-19T00:40:27;0.90;;;0.60;;
2646;SDS011;1333;50.958;6.770;2023-11-19T00:42:53;0.80;;;0.70;;
2646;SDS011;1333;50.958;6.770;2023-11-19T00:45:19;3.53;;;0.87;;
2646;SDS011;1333;50.958;6.770;2023-11-19T00:47:44;0.80;;;0.70;;
2646;SDS011;1333;50.958;6.770;2023-11-19T00:50:10;0.90;;;0.77;;
2646;SDS011;1333;50.958;6.770;2023-11-19T00:52:36;1.67;;;0.60;;
2646;SDS011;1333;50.958;6.770;2023-11-19T00:55:02;0.80;;;0.60;;
2646;SDS011;1333;50.958;6.770;2023-11-19T00:57:29;0.90;;;0.70;;
2646;SDS011;1333;50.958;6.770;2023-11-19T00:59:55;1.20;;;0.60;;
2646;SDS011;1333;50.958;6.770;2023-11-19T01:02:20;3.00;;;0.70;;
2646;SDS011;1333;50.958;6.770;2023-11-19T01:04:46;0.80;;;0.53;;
2646;SDS011;1333;50.958;6.770;2023-11-19T01:07:11;1.40;;;0.70;;
2646;SDS011;1333;50.958;6.770;2023-11-19T01:09:37;1.17;;;0.67;;
2646;SDS011;1333;50.958;6.770;2023-11-19T01:12:03;0.80;;;0.60;;
2646;SDS011;1333;50.958;6.770;2023-11-19T01:14:29;1.00;;;0.63;;
2646;SDS011;1333;50.958;6.770;2023-11-19T01:16:55;2.23;;;0.80;;
2646;SDS011;1333;50.958;6.770;2023-11-19T01:19:21;1.03;;;0.60;;
2646;SDS011;1333;50.958;6.770;2023-11-19T01:21:47;0.97;;;0.60;;
2646;SDS011;1333;50.958;6.770;2023-11-19T01:24:16;1.23;;;0.80;;
2646;SDS011;1333;50.958;6.770;2023-11-19T01:26:42;0.80;;;0.70;;
2646;SDS011;1333;50.958;6.770;2023-11-19T01:29:10;1.40;;;0.90;;
2646;SDS011;1333;50.958;6.770;2023-11-19T01:31:38;1.00;;;0.80;;
2646;SDS011;1333;50.958;6.770;2023-11-19T01:34:07;1.37;;;0.90;;
2646;SDS011;1333;50.958;6.770;2023-11-19T01:36:33;2.27;;;0.90;;
2646;SDS011;1333;50.958;6.770;2023-11-19T01:38:59;0.90;;;0.80;;
2646;SDS011;1333;50.958;6.770;2023-11-19T01:41:24;1.20;;;1.10;;
2646;SDS011;1333;50.958;6.770;2023-11-19T01:43:50;0.80;;;0.70;;
2646;SDS011;1333;50.958;6.770;2023-11-19T01:46:15;2.13;;;1.10;;
2646;SDS011;1333;50.958;6.770;2023-11-19T01:48:42;1.80;;;0.90;;
2646;SDS011;1333;50.958;6.770;2023-11-19T01:51:09;1.13;;;1.03;;
2646;SDS011;1333;50.958;6.770;2023-11-19T01:53:36;3.30;;;2.50;;
2646;SDS011;1333;50.958;6.770;2023-11-19T01:56:04;1.37;;;1.10;;
2646;SDS011;1333;50.958;6.770;2023-11-19T01:58:33;1.40;;;1.10;;
2646;SDS011;1333;50.958;6.770;2023-11-19T02:01:00;4.40;;;1.17;;
2646;SDS011;1333;50.958;6.770;2023-11-19T02:03:28;3.37;;;1.27;;
2646;SDS011;1333;50.958;6.770;2023-11-19T02:05:56;2.10;;;0.93;;
2646;SDS011;1333;50.958;6.770;2023-11-19T02:08:22;1.47;;;1.00;;
2646;SDS011;1333;50.958;6.770;2023-11-19T02:10:47;1.30;;;1.20;;
2646;SDS011;1333;50.958;6.770;2023-11-19T02:13:13;1.40;;;1.10;;
2646;SDS011;1333;50.958;6.770;2023-11-19T02:15:39;3.20;;;1.00;;
2646;SDS011;1333;50.958;6.770;2023-11-19T02:18:21;7.03;;;1.50;;
2646;SDS011;1333;50.958;6.770;2023-11-19T02:20:48;2.33;;;1.13;;
2646;SDS011;1333;50.958;6.770;2023-11-19T02:23:15;2.70;;;1.23;;
2646;SDS011;1333;50.958;6.770;2023-11-19T02:25:41;2.93;;;1.30;;
2646;SDS011;1333;50.958;6.770;2023-11-19T02:28:09;9.17;;;2.20;;
2646;SDS011;1333;50.958;6.770;2023-11-19T02:30:36;2.40;;;1.63;;
2646;SDS011;1333;50.958;6.770;2023-11-19T02:33:02;3.33;;;1.43;;
2646;SDS011;1333;50.958;6.770;2023-11-19T02:35:30;1.53;;;1.43;;
2646;SDS011;1333;50.958;6.770;2023-11-19T02:37:57;3.47;;;1.20;;
2646;SDS011;1333;50.958;6.770;2023-11-19T02:40:28;3.43;;;1.20;;
2646;SDS011;1333;50.958;6.770;2023-11-19T02:42:54;3.80;;;1.60;;
2646;SDS011;1333;50.958;6.770;2023-11-19T02:45:21;4.90;;;2.13;;
2646;SDS011;1333;50.958;6.770;2023-11-19T02:47:50;4.80;;;1.80;;
2646;SDS011;1333;50.958;6.770;2023-11-19T02:50:17;7.20;;;2.80;;
2646;SDS011;1333;50.958;6.770;2023-11-19T02:52:49;2.90;;;1.20;;
2646;SDS011;1333;50.958;6.770;2023-11-19T02:55:16;7.43;;;1.83;;
2646;SDS011;1333;50.958;6.770;2023-11-19T02:57:43;4.80;;;1.63;;
2646;SDS011;1333;50.958;6.770;2023-11-19T03:00:16;7.33;;;1.70;;
2646;SDS011;1333;50.958;6.770;2023-11-19T03:02:43;3.73;;;1.43;;
2646;SDS011;1333;50.958;6.770;2023-11-19T03:05:14;5.07;;;1.50;;
2646;SDS011;1333;50.958;6.770;2023-11-19T03:07:41;5.13;;;1.50;;
2646;SDS011;1333;50.958;6.770;2023-11-19T03:10:08;3.00;;;1.10;;
2646;SDS011;1333;50.958;6.770;2023-11-19T03:12:41;3.77;;;1.70;;
2646;SDS011;1333;50.958;6.770;2023-11-19T03:15:07;5.90;;;1.77;;
2646;SDS011;1333;50.958;6.770;2023-11-19T03:17:39;2.10;;;1.40;;
2646;SDS011;1333;50.958;6.770;2023-11-19T03:20:06;3.13;;;1.63;;
2646;SDS011;1333;50.958;6.770;2023-11-19T03:22:39;2.33;;;1.60;;
2646;SDS011;1333;50.958;6.770;2023-11-19T03:25:06;4.43;;;2.10;;
2646;SDS011;1333;50.958;6.770;2023-11-19T03:27:33;7.30;;;3.03;;
2646;SDS011;1333;50.958;6.770;2023-11-19T03:30:00;3.60;;;1.50;;
2646;SDS011;1333;50.958;6.770;2023-11-19T03:32:26;7.20;;;1.83;;
2646;SDS011;1333;50.958;6.770;2023-11-19T03:34:52;3.23;;;1.63;;
2646;SDS011;1333;50.958;6.770;2023-11-19T03:37:17;5.80;;;1.60;;
2646;SDS011;1333;50.958;6.770;2023-11-19T03:39:44;16.63;;;1.77;;
2646;SDS011;1333;50.958;6.770;2023-11-19T03:42:10;5.50;;;1.77;;
2646;SDS011;1333;50.958;6.770;2023-11-19T03:44:38;7.67;;;2.20;;
2646;SDS011;1333;50.958;6.770;2023-11-19T03:47:03;4.17;;;2.13;;
2646;SDS011;1333;50.958;6.770;2023-11-19T03:49:29;8.90;;;2.30;;
2646;SDS011;1333;50.958;6.770;2023-11-19T03:51:54;7.57;;;1.93;;
2646;SDS011;1333;50.958;6.770;2023-11-19T03:54:20;3.07;;;1.43;;
2646;SDS011;1333;50.958;6.770;2023-11-19T03:56:48;5.40;;;2.00;;
2646;SDS011;1333;50.958;6.770;2023-11-19T03:59:13;12.00;;;2.00;;
2646;SDS011;1333;50.958;6.770;2023-11-19T04:01:40;5.27;;;1.53;;
2646;SDS011;1333;50.958;6.770;2023-11-19T04:04:06;5.17;;;1.70;;
2646;SDS011;1333;50.958;6.770;2023-11-19T04:06:31;4.03;;;2.00;;
2646;SDS011;1333;50.958;6.770;2023-11-19T04:08:57;8.20;;;2.33;;
2646;SDS011;1333;50.958;6.770;2023-11-19T04:11:22;7.73;;;1.77;;
2646;SDS011;1333;50.958;6.770;2023-11-19T04:13:48;5.73;;;1.80;;
2646;SDS011;1333;50.958;6.770;2023-11-19T04:16:13;3.20;;;1.60;;
2646;SDS011;1333;50.958;6.770;2023-11-19T04:18:39;11.30;;;2.20;;
2646;SDS011;1333;50.958;6.770;2023-11-19T04:21:06;2.33;;;1.50;;
2646;SDS011;1333;50.958;6.770;2023-11-19T04:23:32;7.60;;;1.47;;
2646;SDS011;1333;50.958;6.770;2023-11-19T04:25:57;8.57;;;3.80;;
2646;SDS011;1333;50.958;6.770;2023-11-19T04:28:23;10.57;;;2.80;;
2646;SDS011;1333;50.958;6.770;2023-11-19T04:30:52;10.70;;;2.37;;
2646;SDS011;1333;50.958;6.770;2023-11-19T04:33:17;3.93;;;2.20;;
2646;SDS011;1333;50.958;6.770;2023-11-19T04:35:43;9.90;;;2.60;;
2646;SDS011;1333;50.958;6.770;2023-11-19T04:38:08;4.70;;;2.37;;
2646;SDS011;1333;50.958;6.770;2023-11-19T04:40:34;13.93;;;2.70;;
2646;SDS011;1333;50.958;6.770;2023-11-19T04:42:59;8.83;;;2.40;;
2646;SDS011;1333;50.958;6.770;2023-11-19T04:45:25;12.80;;;3.07;;
2646;SDS011;1333;50.958;6.770;2023-11-19T04:47:50;9.63;;;2.57;;
2646;SDS011;1333;50.958;6.770;2023-11-19T04:50:16;7.80;;;2.07;;
2646;SDS011;1333;50.958;6.770;2023-11-19T04:52:42;4.73;;;1.40;;
2646;SDS011;1333;50.958;6.770;2023-11-19T04:55:10;6.47;;;2.83;;
2646;SDS011;1333;50.958;6.770;2023-11-19T04:57:36;13.23;;;2.97;;
2646;SDS011;1333;50.958;6.770;2023-11-19T05:00:02;5.27;;;1.87;;
2646;SDS011;1333;50.958;6.770;2023-11-19T05:02:30;8.63;;;2.80;;
2646;SDS011;1333;50.958;6.770;2023-11-19T05:04:55;15.63;;;2.30;;
2646;SDS011;1333;50.958;6.770;2023-11-19T05:07:21;6.23;;;2.80;;
2646;SDS011;1333;50.958;6.770;2023-11-19T05:09:47;5.73;;;2.43;;
2646;SDS011;1333;50.958;6.770;2023-11-19T05:12:12;11.77;;;2.17;;
2646;SDS011;1333;50.958;6.770;2023-11-19T05:14:38;17.77;;;6.50;;
2646;SDS011;1333;50.958;6.770;2023-11-19T05:17:03;13.07;;;3.50;;
2646;SDS011;1333;50.958;6.770;2023-11-19T05:19:29;4.70;;;2.20;;
2646;SDS011;1333;50.958;6.770;2023-11-19T05:21:54;9.23;;;2.90;;
2646;SDS011;1333;50.958;6.770;2023-11-19T05:24:20;11.90;;;2.37;;
2646;SDS011;1333;50.958;6.770;2023-11-19T05:26:45;5.83;;;2.10;;
2646;SDS011;1333;50.958;6.770;2023-11-19T05:29:12;9.53;;;2.37;;
2646;SDS011;1333;50.958;6.770;2023-11-19T05:31:37;3.80;;;1.53;;
2646;SDS011;1333;50.958;6.770;2023-11-19T05:34:03;14.70;;;2.47;;
2646;SDS011;1333;50.958;6.770;2023-11-19T05:36:29;6.50;;;1.77;;
2646;SDS011;1333;50.958;6.770;2023-11-19T05:38:55;6.63;;;3.20;;
2646;SDS011;1333;50.958;6.770;2023-11-19T05:41:20;7.10;;;1.63;;
2646;SDS011;1333;50.958;6.770;2023-11-19T05:43:46;2.87;;;1.43;;
2646;SDS011;1333;50.958;6.770;2023-11-19T05:46:11;15.13;;;2.70;;
2646;SDS011;1333;50.958;6.770;2023-11-19T05:48:38;4.93;;;2.40;;
2646;SDS011;1333;50.958;6.770;2023-11-19T05:51:04;10.83;;;2.10;;
2646;SDS011;1333;50.958;6.770;2023-11-19T05:53:30;8.13;;;2.73;;
2646;SDS011;1333;50.958;6.770;2023-11-19T05:55:56;12.83;;;3.27;;
2646;SDS011;1333;50.958;6.770;2023-11-19T05:58:23;13.43;;;2.73;;
2646;SDS011;1333;50.958;6.770;2023-11-19T06:00:53;10.37;;;2.13;;
2646;SDS011;1333;50.958;6.770;2023-11-19T06:03:19;8.93;;;2.10;;
2646;SDS011;1333;50.958;6.770;2023-11-19T06:05:46;9.27;;;2.20;;
2646;SDS011;1333;50.958;6.770;2023-11-19T06:08:12;8.63;;;2.73;;
2646;SDS011;1333;50.958;6.770;2023-11-19T06:10:38;11.03;;;2.60;;
2646;SDS011;1333;50.958;6.770;2023-11-19T06:13:04;8.90;;;2.63;;
2646;SDS011;1333;50.958;6.770;2023-11-19T06:15:30;7.43;;;2.83;;
2646;SDS011;1333;50.958;6.770;2023-11-19T06:17:57;14.20;;;3.50;;
2646;SDS011;1333;50.958;6.770;2023-11-19T06:20:26;8.77;;;3.87;;
2646;SDS011;1333;50.958;6.770;2023-11-19T06:22:53;10.70;;;2.50;;
2646;SDS011;1333;50.958;6.770;2023-11-19T06:25:19;12.30;;;3.00;;
2646;SDS011;1333;50.958;6.770;2023-11-19T06:27:45;11.30;;;3.57;;
2646;SDS011;1333;50.958;6.770;2023-11-19T06:30:10;12.50;;;3.03;;
2646;SDS011;1333;50.958;6.770;2023-11-19T06:32:36;7.30;;;1.90;;
2646;SDS011;1333;50.958;6.770;2023-11-19T06:35:02;5.80;;;2.73;;
2646;SDS011;1333;50.958;6.770;2023-11-19T06:37:29;6.90;;;3.03;;
2646;SDS011;1333;50.958;6.770;2023-11-19T06:39:55;5.90;;;3.00;;
2646;SDS011;1333;50.958;6.770;2023-11-19T06:42:20;12.87;;;3.20;;
2646;SDS011;1333;50.958;6.770;2023-11-19T06:44:46;6.13;;;2.23;;
2646;SDS011;1333;50.958;6.770;2023-11-19T06:47:11;10.00;;;2.83;;
2646;SDS011;1333;50.958;6.770;2023-11-19T06:49:37;8.20;;;3.47;;
2646;SDS011;1333;50.958;6.770;2023-11-19T06:52:02;10.70;;;2.07;;
2646;SDS011;1333;50.958;6.770;2023-11-19T06:54:29;7.40;;;2.50;;
2646;SDS011;1333;50.958;6.770;2023-11-19T06:56:55;7.60;;;2.77;;
2646;SDS011;1333;50.958;6.770;2023-11-19T06:59:22;6.70;;;2.43;;
2646;SDS011;1333;50.958;6.770;2023-11-19T07:01:48;11.33;;;2.47;;
2646;SDS011;1333;50.958;6.770;2023-11-19T07:04:13;14.20;;;2.20;;
2646;SDS011;1333;50.958;6.770;2023-11-19T07:06:39;11.70;;;3.47;;
2646;SDS011;1333;50.958;6.770;2023-11-19T07:09:08;13.13;;;2.73;;
2646;SDS011;1333;50.958;6.770;2023-11-19T07:11:37;8.80;;;3.27;;
2646;SDS011;1333;50.958;6.770;2023-11-19T07:14:04;8.37;;;3.17;;
2646;SDS011;1333;50.958;6.770;2023-11-19T07:16:31;8.73;;;2.63;;
2646;SDS011;1333;50.958;6.770;2023-11-19T07:18:57;13.73;;;2.60;;
2646;SDS011;1333;50.958;6.770;2023-11-19T07:21:24;17.50;;;3.40;;
2646;SDS011;1333;50.958;6.770;2023-11-19T07:23:50;13.90;;;2.30;;
2646;SDS011;1333;50.958;6.770;2023-11-19T07:26:16;12.57;;;2.43;;
2646;SDS011;1333;50.958;6.770;2023-11-19T07:28:42;4.40;;;2.57;;
2646;SDS011;1333;50.958;6.770;2023-11-19T07:31:10;7.53;;;2.90;;
2646;SDS011;1333;50.958;6.770;2023-11-19T07:33:36;10.03;;;2.23;;
2646;SDS011;1333;50.958;6.770;2023-11-19T07:36:02;10.63;;;2.77;;
2646;SDS011;1333;50.958;6.770;2023-11-19T07:38:27;11.23;;;3.20;;
2646;SDS011;1333;50.958;6.770;2023-11-19T07:40:53;12.20;;;3.17;;
2646;SDS011;1333;50.958;6.770;2023-11-19T07:43:19;20.47;;;2.77;;
2646;SDS011;1333;50.958;6.770;2023-11-19T07:45:44;9.33;;;2.90;;
2646;SDS011;1333;50.958;6.770;2023-11-19T07:48:10;11.30;;;3.33;;
2646;SDS011;1333;50.958;6.770;2023-11-19T07:50:38;12.13;;;2.77;;
2646;SDS011;1333;50.958;6.770;2023-11-19T07:53:05;7.93;;;2.63;;
2646;SDS011;1333;50.958;6.770;2023-11-19T07:55:34;12.03;;;3.53;;
2646;SDS011;1333;50.958;6.770;2023-11-19T07:57:59;20.03;;;3.30;;
2646;SDS011;1333;50.958;6.770;2023-11-19T08:00:26;15.00;;;2.77;;
2646;SDS011;1333;50.958;6.770;2023-11-19T08:02:51;12.43;;;2.30;;
2646;SDS011;1333;50.958;6.770;2023-11-19T08:05:17;13.30;;;2.97;;
2646;SDS011;1333;50.958;6.770;2023-11-19T08:07:42;8.53;;;2.60;;
2646;SDS011;1333;50.958;6.770;2023-11-19T08:10:08;16.33;;;3.00;;
2646;SDS011;1333;50.958;6.770;2023-11-19T08:12:36;9.20;;;2.50;;
2646;SDS011;1333;50.958;6.770;2023-11-19T08:15:02;5.43;;;2.40;;
2646;SDS011;1333;50.958;6.770;2023-11-19T08:17:29;4.70;;;2.70;;
2646;SDS011;1333;50.958;6.770;2023-11-19T08:19:55;16.13;;;3.30;;
2646;SDS011;1333;50.958;6.770;2023-11-19T08:22:20;5.93;;;2.90;;
2646;SDS011;1333;50.958;6.770;2023-11-19T08:24:47;13.93;;;6.13;;
2646;SDS011;1333;50.958;6.770;2023-11-19T08:27:13;8.47;;;3.63;;
2646;SDS011;1333;50.958;6.770;2023-11-19T08:29:39;8.30;;;2.97;;
2646;SDS011;1333;50.958;6.770;2023-11-19T08:32:05;9.67;;;2.70;;
2646;SDS011;1333;50.958;6.770;2023-11-19T08:34:31;8.20;;;2.47;;
2646;SDS011;1333;50.958;6.770;2023-11-19T08:36:56;8.27;;;2.90;;
2646;SDS011;1333;50.958;6.770;2023-11-19T08:39:22;17.53;;;3.47;;
2646;SDS011;1333;50.958;6.770;2023-11-19T08:41:47;13.10;;;3.00;;
2646;SDS011;1333;50.958;6.770;2023-11-19T08:44:13;10.23;;;2.40;;
2646;SDS011;1333;50.958;6.770;2023-11-19T08:46:39;5.00;;;2.83;;
2646;SDS011;1333;50.958;6.770;2023-11-19T08:49:11;7.70;;;3.00;;
2646;SDS011;1333;50.958;6.770;2023-11-19T08:51:36;7.80;;;2.47;;
2646;SDS011;1333;50.958;6.770;2023-11-19T08:54:01;6.83;;;2.67;;
2646;SDS011;1333;50.958;6.770;2023-11-19T08:56:27;13.00;;;3.07;;
2646;SDS011;1333;50.958;6.770;2023-11-19T08:58:57;6.73;;;3.03;;
2646;SDS011;1333;50.958;6.770;2023-11-19T09:01:23;8.83;;;3.20;;
2646;SDS011;1333;50.958;6.770;2023-11-19T09:03:49;6.97;;;2.90;;
2646;SDS011;1333;50.958;6.770;2023-11-19T09:06:15;10.33;;;2.67;;
2646;SDS011;1333;50.958;6.770;2023-11-19T09:08:41;10.47;;;3.80;;
2646;SDS011;1333;50.958;6.770;2023-11-19T09:11:07;15.50;;;7.73;;
2646;SDS011;1333;50.958;6.770;2023-11-19T09:13:36;9.20;;;3.20;;
2646;SDS011;1333;50.958;6.770;2023-11-19T09:16:02;7.27;;;3.00;;
2646;SDS011;1333;50.958;6.770;2023-11-19T09:18:30;11.27;;;3.50;;
2646;SDS011;1333;50.958;6.770;2023-11-19T09:20:57;6.13;;;3.03;;
2646;SDS011;1333;50.958;6.770;2023-11-19T09:23:22;10.47;;;4.23;;
2646;SDS011;1333;50.958;6.770;2023-11-19T09:25:50;13.13;;;4.13;;
2646;SDS011;1333;50.958;6.770;2023-11-19T09:28:15;8.87;;;4.30;;
2646;SDS011;1333;50.958;6.770;2023-11-19T09:30:41;8.70;;;2.97;;
2646;SDS011;1333;50.958;6.770;2023-11-19T09:33:06;7.67;;;3.23;;
2646;SDS011;1333;50.958;6.770;2023-11-19T09:35:32;9.60;;;2.83;;
2646;SDS011;1333;50.958;6.770;2023-11-19T09:37:57;7.93;;;3.10;;
2646;SDS011;1333;50.958;6.770;2023-11-19T09:40:24;9.70;;;3.03;;
2646;SDS011;1333;50.958;6.770;2023-11-19T09:42:50;6.90;;;3.63;;
2646;SDS011;1333;50.958;6.770;2023-11-19T09:45:16;8.50;;;3.00;;
2646;SDS011;1333;50.958;6.770;2023-11-19T09:47:45;14.17;;;3.80;;
2646;SDS011;1333;50.958;6.770;2023-11-19T09:50:18;7.40;;;2.43;;
2646;SDS011;1333;50.958;6.770;2023-11-19T09:52:44;5.93;;;3.00;;
2646;SDS011;1333;50.958;6.770;2023-11-19T09:55:11;14.00;;;2.70;;
2646;SDS011;1333;50.958;6.770;2023-11-19T09:57:40;4.43;;;2.40;;
2646;SDS011;1333;50.958;6.770;2023-11-19T10:00:10;6.17;;;2.50;;
2646;SDS011;1333;50.958;6.770;2023-11-19T10:02:37;13.53;;;4.03;;
2646;SDS011;1333;50.958;6.770;2023-11-19T10:05:06;7.30;;;2.40;;
2646;SDS011;1333;50.958;6.770;2023-11-19T10:07:32;9.70;;;2.80;;
2646;SDS011;1333;50.958;6.770;2023-11-19T10:10:02;9.57;;;3.07;;
2646;SDS011;1333;50.958;6.770;2023-11-19T10:12:31;10.57;;;3.27;;
2646;SDS011;1333;50.958;6.770;2023-11-19T10:14:57;12.50;;;3.27;;
2646;SDS011;1333;50.958;6.770;2023-11-19T10:17:33;11.80;;;3.90;;
2646;SDS011;1333;50.958;6.770;2023-11-19T10:19:59;5.40;;;2.90;;
2646;SDS011;1333;50.958;6.770;2023-11-19T10:22:27;10.07;;;3.00;;
2646;SDS011;1333;50.958;6.770;2023-11-19T10:24:53;7.70;;;3.30;;
2646;SDS011;1333;50.958;6.770;2023-11-19T10:27:19;7.40;;;2.97;;
2646;SDS011;1333;50.958;6.770;2023-11-19T10:29:45;7.40;;;2.77;;
2646;SDS011;1333;50.958;6.770;2023-11-19T10:32:12;9.83;;;3.57;;
2646;SDS011;1333;50.958;6.770;2023-11-19T10:34:38;6.97;;;3.17;;
2646;SDS011;1333;50.958;6.770;2023-11-19T10:37:04;12.50;;;3.17;;
2646;SDS011;1333;50.958;6.770;2023-11-19T10:42:21;13.13;;;4.00;;
2646;SDS011;1333;50.958;6.770;2023-11-19T10:44:47;9.33;;;3.10;;
2646;SDS011;1333;50.958;6.770;2023-11-19T10:47:16;6.53;;;2.80;;
2646;SDS011;1333;50.958;6.770;2023-11-19T10:49:44;9.40;;;2.53;;
2646;SDS011;1333;50.958;6.770;2023-11-19T10:52:15;14.73;;;3.47;;
2646;SDS011;1333;50.958;6.770;2023-11-19T10:54:44;8.40;;;3.00;;
2646;SDS011;1333;50.958;6.770;2023-11-19T10:57:16;6.97;;;2.60;;
2646;SDS011;1333;50.958;6.770;2023-11-19T10:59:44;7.80;;;2.47;;
2646;SDS011;1333;50.958;6.770;2023-11-19T11:02:11;13.87;;;2.60;;
2646;SDS011;1333;50.958;6.770;2023-11-19T11:04:44;13.10;;;2.70;;
2646;SDS011;1333;50.958;6.770;2023-11-19T11:07:12;11.67;;;2.67;;
2646;SDS011;1333;50.958;6.770;2023-11-19T11:09:40;7.50;;;2.90;;
2646;SDS011;1333;50.958;6.770;2023-11-19T11:12:06;5.07;;;2.37;;
2646;SDS011;1333;50.958;6.770;2023-11-19T11:14:35;8.70;;;2.47;;
2646;SDS011;1333;50.958;6.770;2023-11-19T11:17:05;5.83;;;2.77;;
2646;SDS011;1333;50.958;6.770;2023-11-19T11:19:33;9.40;;;3.00;;
2646;SDS011;1333;50.958;6.770;2023-11-19T11:21:59;13.53;;;3.00;;
2646;SDS011;1333;50.958;6.770;2023-11-19T11:27:30;9.27;;;2.37;;
2646;SDS011;1333;50.958;6.770;2023-11-19T11:35:37;8.03;;;3.03;;
2646;SDS011;1333;50.958;6.770;2023-11-19T11:38:21;11.57;;;3.00;;
2646;SDS011;1333;50.958;6.770;2023-11-19T11:43:50;5.77;;;2.40;;
2646;SDS011;1333;50.958;6.770;2023-11-19T11:49:04;6.70;;;2.07;;
2646;SDS011;1333;50.958;6.770;2023-11-19T11:59:37;9.50;;;1.97;;
2646;SDS011;1333;50.958;6.770;2023-11-19T12:02:19;9.60;;;2.73;;
2646;SDS011;1333;50.958;6.770;2023-11-19T12:04:47;10.03;;;2.50;;
2646;SDS011;1333;50.958;6.770;2023-11-19T12:07:23;2.33;;;1.50;;
2646;SDS011;1333;50.958;6.770;2023-11-19T12:09:53;8.20;;;1.90;;
2646;SDS011;1333;50.958;6.770;2023-11-19T12:12:32;7.53;;;2.40;;
2646;SDS011;1333;50.958;6.770;2023-11-19T12:17:57;14.33;;;3.20;;
2646;SDS011;1333;50.958;6.770;2023-11-19T12:20:19;10.03;;;2.30;;
2646;SDS011;1333;50.958;6.770;2023-11-19T12:22:48;7.07;;;2.60;;
2646;SDS011;1333;50.958;6.770;2023-11-19T12:25:16;8.30;;;3.37;;
2646;SDS011;1333;50.958;6.770;2023-11-19T12:27:43;8.70;;;2.23;;
2646;SDS011;1333;50.958;6.770;2023-11-19T12:30:10;8.10;;;2.50;;
2646;SDS011;1333;50.958;6.770;2023-11-19T12:32:40;10.47;;;2.50;;
2646;SDS011;1333;50.958;6.770;2023-11-19T12:35:09;5.67;;;2.20;;
2646;SDS011;1333;50.958;6.770;2023-11-19T12:37:45;10.80;;;1.90;;
2646;SDS011;1333;50.958;6.770;2023-11-19T12:40:13;10.37;;;3.10;;
2646;SDS011;1333;50.958;6.770;2023-11-19T12:42:50;2.77;;;1.90;;
2646;SDS011;1333;50.958;6.770;2023-11-19T12:45:20;5.03;;;2.53;;
2646;SDS011;1333;50.958;6.770;2023-11-19T12:47:48;7.43;;;2.03;;
2646;SDS011;1333;50.958;6.770;2023-11-19T12:50:14;5.00;;;2.33;;
2646;SDS011;1333;50.958;6.770;2023-11-19T12:52:43;5.03;;;1.77;;
2646;SDS011;1333;50.958;6.770;2023-11-19T12:55:25;12.07;;;2.10;;
2646;SDS011;1333;50.958;6.770;2023-11-19T12:57:52;6.90;;;2.07;;
2646;SDS011;1333;50.958;6.770;2023-11-19T13:00:20;8.47;;;2.07;;
2646;SDS011;1333;50.958;6.770;2023-11-19T13:02:48;8.93;;;1.83;;
2646;SDS011;1333;50.958;6.770;2023-11-19T13:08:04;8.00;;;1.90;;
2646;SDS011;1333;50.958;6.770;2023-11-19T13:10:31;9.13;;;2.13;;
2646;SDS011;1333;50.958;6.770;2023-11-19T13:13:07;7.30;;;2.17;;
2646;SDS011;1333;50.958;6.770;2023-11-19T13:15:33;9.60;;;2.10;;
2646;SDS011;1333;50.958;6.770;2023-11-19T13:17:59;7.30;;;2.00;;
2646;SDS011;1333;50.958;6.770;2023-11-19T13:20:25;4.30;;;2.20;;
2646;SDS011;1333;50.958;6.770;2023-11-19T13:22:58;8.60;;;2.67;;
2646;SDS011;1333;50.958;6.770;2023-11-19T13:25:25;10.30;;;2.63;;
2646;SDS011;1333;50.958;6.770;2023-11-19T13:27:51;8.37;;;2.43;;
2646;SDS011;1333;50.958;6.770;2023-11-19T13:30:17;20.77;;;3.73;;
2646;SDS011;1333;50.958;6.770;2023-11-19T13:32:43;18.53;;;2.53;;
2646;SDS011;1333;50.958;6.770;2023-11-19T13:35:12;17.37;;;3.37;;
2646;SDS011;1333;50.958;6.770;2023-11-19T13:37:38;7.87;;;3.20;;
2646;SDS011;1333;50.958;6.770;2023-11-19T13:40:04;7.03;;;2.70;;
2646;SDS011;1333;50.958;6.770;2023-11-19T13:42:31;7.93;;;2.93;;
2646;SDS011;1333;50.958;6.770;2023-11-19T13:44:57;5.23;;;2.00;;
2646;SDS011;1333;50.958;6.770;2023-11-19T13:47:22;7.53;;;2.50;;
2646;SDS011;1333;50.958;6.770;2023-11-19T13:49:48;14.00;;;2.63;;
2646;SDS011;1333;50.958;6.770;2023-11-19T13:52:14;6.30;;;2.20;;
2646;SDS011;1333;50.958;6.770;2023-11-19T13:54:40;11.27;;;3.07;;
2646;SDS011;1333;50.958;6.770;2023-11-19T13:57:06;9.60;;;2.67;;
2646;SDS011;1333;50.958;6.770;2023-11-19T13:59:31;10.70;;;3.17;;
2646;SDS011;1333;50.958;6.770;2023-11-19T14:01:57;9.97;;;2.40;;
2646;SDS011;1333;50.958;6.770;2023-11-19T14:04:23;8.23;;;2.80;;
2646;SDS011;1333;50.958;6.770;2023-11-19T14:06:49;11.80;;;2.20;;
2646;SDS011;1333;50.958;6.770;2023-11-19T14:09:14;4.40;;;2.00;;
2646;SDS011;1333;50.958;6.770;2023-11-19T14:11:40;7.40;;;2.33;;
2646;SDS011;1333;50.958;6.770;2023-11-19T14:14:05;8.60;;;2.93;;
2646;SDS011;1333;50.958;6.770;2023-11-19T14:16:31;3.77;;;2.33;;
2646;SDS011;1333;50.958;6.770;2023-11-19T14:18:57;9.33;;;2.60;;
2646;SDS011;1333;50.958;6.770;2023-11-19T14:21:23;8.33;;;2.10;;
2646;SDS011;1333;50.958;6.770;2023-11-19T14:23:50;5.43;;;2.60;;
2646;SDS011;1333;50.958;6.770;2023-11-19T14:26:15;3.30;;;1.70;;
2646;SDS011;1333;50.958;6.770;2023-11-19T14:28:41;5.77;;;2.23;;
2646;SDS011;1333;50.958;6.770;2023-11-19T14:31:07;8.93;;;1.67;;
2646;SDS011;1333;50.958;6.770;2023-11-19T14:33:32;7.70;;;2.53;;
2646;SDS011;1333;50.958;6.770;2023-11-19T14:36:00;12.10;;;2.33;;
2646;SDS011;1333;50.958;6.770;2023-11-19T14:38:25;8.20;;;2.23;;
2646;SDS011;1333;50.958;6.770;2023-11-19T14:40:51;6.03;;;2.70;;
2646;SDS011;1333;50.958;6.770;2023-11-19T14:43:16;13.00;;;2.90;;
2646;SDS011;1333;50.958;6.770;2023-11-19T14:45:42;6.90;;;1.60;;
2646;SDS011;1333;50.958;6.770;2023-11-19T14:48:08;13.10;;;2.73;;
2646;SDS011;1333;50.958;6.770;2023-11-19T14:50:35;11.37;;;1.93;;
2646;SDS011;1333;50.958;6.770;2023-11-19T14:53:00;16.83;;;2.97;;
2646;SDS011;1333;50.958;6.770;2023-11-19T14:55:26;11.73;;;3.93;;
2646;SDS011;1333;50.958;6.770;2023-11-19T14:57:51;13.53;;;3.50;;
2646;SDS011;1333;50.958;6.770;2023-11-19T15:00:17;6.30;;;1.83;;
2646;SDS011;1333;50.958;6.770;2023-11-19T15:02:43;3.60;;;2.47;;
2646;SDS011;1333;50.958;6.770;2023-11-19T15:05:08;21.43;;;2.70;;
2646;SDS011;1333;50.958;6.770;2023-11-19T15:07:38;7.33;;;2.23;;
2646;SDS011;1333;50.958;6.770;2023-11-19T15:10:05;8.73;;;3.00;;
2646;SDS011;1333;50.958;6.770;2023-11-19T15:12:37;7.20;;;2.40;;
2646;SDS011;1333;50.958;6.770;2023-11-19T15:15:06;6.70;;;2.33;;
2646;SDS011;1333;50.958;6.770;2023-11-19T15:17:35;10.73;;;2.90;;
2646;SDS011;1333;50.958;6.770;2023-11-19T15:20:02;9.73;;;2.13;;
2646;SDS011;1333;50.958;6.770;2023-11-19T15:22:28;11.00;;;2.40;;
2646;SDS011;1333;50.958;6.770;2023-11-19T15:24:54;7.33;;;2.10;;
2646;SDS011;1333;50.958;6.770;2023-11-19T15:27:19;8.20;;;2.27;;
2646;SDS011;1333;50.958;6.770;2023-11-19T15:29:45;6.50;;;1.80;;
2646;SDS011;1333;50.958;6.770;2023-11-19T15:32:10;7.73;;;1.87;;
2646;SDS011;1333;50.958;6.770;2023-11-19T15:34:36;7.97;;;2.47;;
2646;SDS011;1333;50.958;6.770;2023-11-19T15:37:03;7.37;;;2.07;;
2646;SDS011;1333;50.958;6.770;2023-11-19T15:39:29;9.00;;;1.90;;
2646;SDS011;1333;50.958;6.770;2023-11-19T15:41:54;15.23;;;2.10;;